Terminal Aerodrome Forecast
Issued by NWS

Home | Current Version | Previous Version | Text Only | Print | Product List | Glossary Off
Versions: 1 2 3 4 5 6 7 8 9 10 11 12 13 14 15

705
FTUS43 KIWX 252320
TAFSBN
TAF
KSBN 252320Z 2600/2624 28007KT P6SM SCT060 BKN090
     FM260900 25006KT P6SM SKC
     FM261400 29012G22KT P6SM BKN045=

USA.gov is the U.S. government's official web portal to all federal, state and local government web resources and services.